• Join FlightAware (Why Join?)
  • Login
  • US Flag 
06:00PM EDT


 

Airport Tracker/Info


-or-


 

Live Flight TrackerFlight Track Log ✈ EJA929 ✈ 14-Aug-2013 ✈ KPBI - KMSY

Flight Track Log - Related Links

Times and Time Zones

All times are in EDT time to prevent confusion due to time zone crossing. See the EJA929 flight status page for this flight to view local times or setup timezone preferences in your user account.

Time Position Orientation Groundspeed Altitude Reporting Facility
EDT Latitude Longitude Course Direction KTS MPH feet Rate Location/Type
07:58AM 26.7033 -80.2400 326° Northwest 255 293 6,100  Level Miami Center
07:59AM 26.7753 -80.2911 328° Northwest 264 304 8,700 2,400 Climbing Miami Center
08:00AM 26.8558 -80.3306 336° Northwest 293 337 10,900 1,680 Climbing Miami Center
08:01AM 26.9058 -80.4231 301° West 321 369 12,100 1,440 Climbing Miami Center
08:02AM 27.0887 -80.4360 336° Northwest  Level FlightAware Approximate
08:02AM 26.9303 -80.5261 285° West 336 387 13,800  Level Miami Center
08:03AM 27.2001 -80.5042 326° Northwest  Level FlightAware Approximate
08:03AM 26.9567 -80.6389 285° West 370 426 15,300  Level Miami Center
08:04AM 26.9906 -80.7728 286° West 393 452 16,600 1,200 Climbing Miami Center
08:05AM 27.0186 -80.8950 284° West 406 467 17,800 1,200 Climbing Miami Center
08:06AM 27.0467 -81.0078 286° West 414 476 19,000 1,200 Climbing Miami Center
08:07AM 27.0744 -81.1347 284° West 414 476 20,300 1,260 Climbing Miami Center
08:08AM 27.1039 -81.2619 285° West 420 483 21,600 1,320 Climbing Miami Center
08:09AM 27.1372 -81.4008 285° West 420 483 23,000 1,200 Climbing Miami Center
08:10AM 27.1686 -81.5328 285° West 425 489 24,000 1,140 Climbing Miami Center
08:11AM 27.1997 -81.6694 284° West 441 507 25,300 1,200 Climbing Miami Center
08:12AM 27.2225 -81.7942 282° West 451 519 26,500 1,020 Climbing Miami Center
08:13AM 27.2533 -81.9331 284° West 460 529 27,400 960 Climbing Miami Center
08:14AM 27.2831 -82.0886 282° West 460 529 28,700 1,080 Climbing Miami Center
08:15AM 27.3133 -82.2347 283° West 470 541 29,800 1,200 Climbing Miami Center
08:16AM 27.3411 -82.3833 282° West 480 552 31,100 1,500 Climbing Miami Center
08:17AM 27.3725 -82.5389 283° West 473 544 32,900 1,920 Climbing Miami Center
08:18AM 27.4039 -82.6972 283° West 472 543 35,000 2,100 Climbing Miami Center
08:19AM 27.4336 -82.8389 283° West 472 543 37,100 1,500 Climbing Miami Center
08:20AM 27.4631 -82.9808 283° West 472 543 38,000 420 Climbing Miami Center
08:21AM 27.4919 -83.1297 282° West 478 550 38,000  Level Miami Center
08:22AM 27.5189 -83.2786 282° West 478 550 38,000  Level Miami Center
08:23AM 27.5458 -83.4228 282° West 484 557 38,000  Level Miami Center
08:24AM 27.5742 -83.5742 282° West 484 557 38,000  Level Miami Center
08:26AM 27.6469 -83.9489 282° West 508 585 38,000  Level Jacksonville Center
08:27AM 27.6769 -84.1017 283° West 508 585 38,000  Level Jacksonville Center
08:28AM 27.7025 -84.2589 280° West 508 585 38,000  Level Jacksonville Center
08:29AM 27.7319 -84.4094 282° West 502 578 38,000  Level Jacksonville Center
08:30AM 27.7594 -84.5644 281° West 502 578 38,000  Level Jacksonville Center
08:31AM 27.7886 -84.7197 282° West 507 583 38,000  Level Jacksonville Center
08:32AM 27.8322 -84.8661 289° West 499 574 38,000  Level Jacksonville Center
08:33AM 27.8736 -85.0194 287° West 499 574 38,000  Level Jacksonville Center
08:34AM 27.9192 -85.1636 290° West 499 574 38,000  Level Jacksonville Center
08:35AM 27.9603 -85.3172 287° West 504 580 38,000  Level Jacksonville Center
08:36AM 28.0031 -85.4711 288° West 504 580 38,000  Level Jacksonville Center
08:37AM 28.0481 -85.6228 289° West 509 586 38,000  Level Jacksonville Center
08:38AM 28.0906 -85.7744 288° West 503 579 38,000  Level Jacksonville Center
08:39AM 28.1331 -85.9239 288° West 503 579 38,000  Level Jacksonville Center
08:40AM 28.1792 -86.0853 288° West 503 579 38,000  Level Jacksonville Center
08:41AM 28.2214 -86.2350 288° West 503 579 38,000  Level Jacksonville Center
08:42AM 28.2653 -86.3897 288° West 503 579 38,000  Level Jacksonville Center
08:43AM 28.3069 -86.5397 288° West 503 579 38,000  Level Jacksonville Center
08:44AM 28.3483 -86.6919 287° West 510 587 38,000  Level Jacksonville Center
08:45AM 28.3897 -86.8422 287° West 500 575 38,000  Level Jacksonville Center
08:46AM 28.4328 -86.9972 288° West 505 581 38,000  Level Jacksonville Center
08:47AM 28.4719 -87.1428 287° West 500 575 38,000  Level Jacksonville Center
08:48AM 28.5106 -87.2850 287° West 503 579 38,000  Level Houston Center
08:49AM 28.5497 -87.4344 287° West 498 573 38,000  Level Houston Center
08:50AM 28.5997 -87.6172 287° West 502 578 38,000  Level Houston Center
08:51AM 28.6392 -87.7672 287° West 498 573 38,000  Level Houston Center
08:52AM 28.6789 -87.9175 287° West 498 573 38,000  Level Houston Center
08:53AM 28.7186 -88.0678 287° West 497 572 38,000  Level Houston Center
08:54AM 28.7606 -88.2078 289° West 498 573 38,000  Level Houston Center
08:55AM 28.8539 -88.3561 306° West 483 556 38,000 -360 Level Houston Center
08:57AM 28.9319 -88.4822 305° West 486 559 37,300 -1,380 Descending Houston Center
08:58AM 29.0139 -88.6128 306° West 502 578 35,200 -2,040 Descending Houston Center
08:59AM 29.0953 -88.7492 304° West 517 595 33,200 -2,220 Descending Houston Center
09:00AM 29.1767 -88.8811 305° West 511 588 30,700 -2,880 Descending Houston Center
09:01AM 29.2567 -89.0136 305° West 508 585 27,400 -3,180 Descending Houston Center
09:02AM 29.3367 -89.1456 305° West 504 580 24,200 -3,060 Descending Houston Center
09:03AM 29.4103 -89.2689 304° West 476 548 21,200 -2,880 Descending Houston Center
09:04AM 29.4797 -89.3847 305° West 449 517 18,300 -3,060 Descending Houston Center
09:05AM 29.5639 -89.5256 305° West 446 513 15,000 -2,640 Descending Houston Center
09:06AM 29.6383 -89.6183 313° West 421 484 12,900 -1,860 Descending Houston Center
09:07AM 29.7072 -89.7056 312° West 388 447 11,200 -1,260 Descending Houston Center
09:08AM 29.7586 -89.7981 303° West 328 377 10,400 -1,140 Descending Houston Center
09:09AM 29.8014 -89.8894 298° West 264 304 8,900 -1,440 Descending Houston Center
09:10AM 29.8286 -89.9536 296° West 272 313 7,500 -1,560 Descending Houston Center
09:11AM 29.8647 -90.0250 300° West 268 308 5,900 -1,620 Descending Houston Center
09:12AM 29.9250 -90.0742 325° Northwest 266 306 4,200 -1,020 Descending Houston Center
09:13AM 29.9839 -90.1194 326° Northwest 260 299 3,900 -120 Descending Houston Center
09:14AM 30.0636 -90.1133 North 269 310 4,000 -780 Climbing Houston Center
09:15AM 30.1331 -90.1275 350° North 256 295 2,500 -1,020 Descending Houston Center
09:16AM 30.1433 -90.1894 281° West 172 198 2,000 -300 Descending Houston Center
09:17AM 30.1086 -90.2125 210° Southwest 133 153 2,000 -240 Level Houston Center
09:18AM 30.0692 -90.2236 194° South 129 148 1,500 -660 Descending Houston Center
09:19AM 30.0339 -90.2347 195° South 125 144 700 -600 Descending Houston Center
09:20AM 30.0000 -90.2475 198° South 131 151 300 -420 Descending Houston Center